sensor_id;sensor_type;location;lat;lon;timestamp;P1;durP1;ratioP1;P2;durP2;ratioP2
48526;SDS011;34317;51.660;5.824;2023-04-06T00:01:17;18.20;;;9.85;;
48526;SDS011;34317;51.660;5.824;2023-04-06T00:03:44;17.38;;;9.75;;
48526;SDS011;34317;51.660;5.824;2023-04-06T00:06:12;15.45;;;9.27;;
48526;SDS011;34317;51.660;5.824;2023-04-06T00:08:42;15.30;;;8.95;;
48526;SDS011;34317;51.660;5.824;2023-04-06T00:11:09;14.90;;;8.98;;
48526;SDS011;34317;51.660;5.824;2023-04-06T00:13:37;15.40;;;8.30;;
48526;SDS011;34317;51.660;5.824;2023-04-06T00:16:04;15.57;;;8.60;;
48526;SDS011;34317;51.660;5.824;2023-04-06T00:18:32;17.48;;;9.30;;
48526;SDS011;34317;51.660;5.824;2023-04-06T00:21:00;17.75;;;9.38;;
48526;SDS011;34317;51.660;5.824;2023-04-06T00:23:27;16.92;;;8.98;;
48526;SDS011;34317;51.660;5.824;2023-04-06T00:25:55;16.75;;;9.45;;
48526;SDS011;34317;51.660;5.824;2023-04-06T00:28:22;16.02;;;9.45;;
48526;SDS011;34317;51.660;5.824;2023-04-06T00:30:53;17.08;;;9.43;;
48526;SDS011;34317;51.660;5.824;2023-04-06T00:33:22;14.98;;;8.98;;
48526;SDS011;34317;51.660;5.824;2023-04-06T00:35:49;18.25;;;9.82;;
48526;SDS011;34317;51.660;5.824;2023-04-06T00:38:17;18.05;;;9.82;;
48526;SDS011;34317;51.660;5.824;2023-04-06T00:40:44;15.93;;;9.57;;
48526;SDS011;34317;51.660;5.824;2023-04-06T00:43:12;18.63;;;9.55;;
48526;SDS011;34317;51.660;5.824;2023-04-06T00:45:40;16.20;;;9.32;;
48526;SDS011;34317;51.660;5.824;2023-04-06T00:48:08;17.33;;;9.52;;
48526;SDS011;34317;51.660;5.824;2023-04-06T00:50:36;18.00;;;9.75;;
48526;SDS011;34317;51.660;5.824;2023-04-06T00:53:03;16.58;;;9.90;;
48526;SDS011;34317;51.660;5.824;2023-04-06T00:55:30;17.83;;;9.48;;
48526;SDS011;34317;51.660;5.824;2023-04-06T00:57:58;15.98;;;9.43;;
48526;SDS011;34317;51.660;5.824;2023-04-06T01:00:31;15.57;;;9.45;;
48526;SDS011;34317;51.660;5.824;2023-04-06T01:03:00;16.00;;;9.52;;
48526;SDS011;34317;51.660;5.824;2023-04-06T01:05:36;20.30;;;9.95;;
48526;SDS011;34317;51.660;5.824;2023-04-06T01:08:13;16.98;;;10.40;;
48526;SDS011;34317;51.660;5.824;2023-04-06T01:10:42;22.23;;;10.73;;
48526;SDS011;34317;51.660;5.824;2023-04-06T01:13:18;20.08;;;9.70;;
48526;SDS011;34317;51.660;5.824;2023-04-06T01:15:59;18.73;;;9.45;;
48526;SDS011;34317;51.660;5.824;2023-04-06T01:18:33;17.75;;;9.48;;
48526;SDS011;34317;51.660;5.824;2023-04-06T01:21:13;15.70;;;9.38;;
48526;SDS011;34317;51.660;5.824;2023-04-06T01:23:57;16.52;;;9.43;;
48526;SDS011;34317;51.660;5.824;2023-04-06T01:26:32;18.38;;;9.98;;
48526;SDS011;34317;51.660;5.824;2023-04-06T01:29:04;17.60;;;9.70;;
48526;SDS011;34317;51.660;5.824;2023-04-06T01:31:32;16.83;;;9.68;;
48526;SDS011;34317;51.660;5.824;2023-04-06T01:33:59;18.00;;;10.32;;
48526;SDS011;34317;51.660;5.824;2023-04-06T01:36:27;17.77;;;10.45;;
48526;SDS011;34317;51.660;5.824;2023-04-06T01:39:06;17.02;;;10.23;;
48526;SDS011;34317;51.660;5.824;2023-04-06T01:41:36;19.15;;;10.20;;
48526;SDS011;34317;51.660;5.824;2023-04-06T01:44:04;17.85;;;10.00;;
48526;SDS011;34317;51.660;5.824;2023-04-06T01:46:32;16.50;;;9.75;;
48526;SDS011;34317;51.660;5.824;2023-04-06T01:49:02;19.25;;;10.52;;
48526;SDS011;34317;51.660;5.824;2023-04-06T01:51:33;19.60;;;10.52;;
48526;SDS011;34317;51.660;5.824;2023-04-06T01:54:03;18.73;;;10.70;;
48526;SDS011;34317;51.660;5.824;2023-04-06T01:57:09;21.00;;;10.17;;
48526;SDS011;34317;51.660;5.824;2023-04-06T01:59:44;17.13;;;9.93;;
48526;SDS011;34317;51.660;5.824;2023-04-06T02:02:21;19.38;;;10.20;;
48526;SDS011;34317;51.660;5.824;2023-04-06T02:04:58;18.55;;;9.75;;
48526;SDS011;34317;51.660;5.824;2023-04-06T02:07:26;18.77;;;10.02;;
48526;SDS011;34317;51.660;5.824;2023-04-06T02:09:55;19.88;;;10.23;;
48526;SDS011;34317;51.660;5.824;2023-04-06T02:12:31;17.17;;;9.98;;
48526;SDS011;34317;51.660;5.824;2023-04-06T02:14:59;15.95;;;9.65;;
48526;SDS011;34317;51.660;5.824;2023-04-06T02:17:28;21.13;;;10.90;;
48526;SDS011;34317;51.660;5.824;2023-04-06T02:19:56;20.10;;;10.90;;
48526;SDS011;34317;51.660;5.824;2023-04-06T02:22:23;17.13;;;10.02;;
48526;SDS011;34317;51.660;5.824;2023-04-06T02:24:50;14.40;;;9.27;;
48526;SDS011;34317;51.660;5.824;2023-04-06T02:27:18;21.13;;;10.73;;
48526;SDS011;34317;51.660;5.824;2023-04-06T02:29:46;19.05;;;10.57;;
48526;SDS011;34317;51.660;5.824;2023-04-06T02:32:17;17.90;;;10.25;;
48526;SDS011;34317;51.660;5.824;2023-04-06T02:34:45;19.05;;;10.00;;
48526;SDS011;34317;51.660;5.824;2023-04-06T02:37:13;18.27;;;9.70;;
48526;SDS011;34317;51.660;5.824;2023-04-06T02:39:40;15.63;;;9.15;;
48526;SDS011;34317;51.660;5.824;2023-04-06T02:42:08;19.23;;;9.93;;
48526;SDS011;34317;51.660;5.824;2023-04-06T02:44:36;19.67;;;10.13;;
48526;SDS011;34317;51.660;5.824;2023-04-06T02:47:03;20.35;;;10.10;;
48526;SDS011;34317;51.660;5.824;2023-04-06T02:49:30;23.40;;;10.07;;
48526;SDS011;34317;51.660;5.824;2023-04-06T02:51:59;18.13;;;9.85;;
48526;SDS011;34317;51.660;5.824;2023-04-06T02:54:30;20.35;;;9.77;;
48526;SDS011;34317;51.660;5.824;2023-04-06T02:56:59;21.90;;;10.00;;
48526;SDS011;34317;51.660;5.824;2023-04-06T02:59:35;19.35;;;9.73;;
48526;SDS011;34317;51.660;5.824;2023-04-06T03:02:22;19.42;;;10.18;;
48526;SDS011;34317;51.660;5.824;2023-04-06T03:04:50;18.30;;;9.25;;
48526;SDS011;34317;51.660;5.824;2023-04-06T03:07:25;19.73;;;10.32;;
48526;SDS011;34317;51.660;5.824;2023-04-06T03:09:53;19.77;;;10.05;;
48526;SDS011;34317;51.660;5.824;2023-04-06T03:12:20;20.88;;;10.80;;
48526;SDS011;34317;51.660;5.824;2023-04-06T03:15:13;17.63;;;9.57;;
48526;SDS011;34317;51.660;5.824;2023-04-06T03:17:44;18.63;;;9.55;;
48526;SDS011;34317;51.660;5.824;2023-04-06T03:20:27;17.15;;;9.77;;
48526;SDS011;34317;51.660;5.824;2023-04-06T03:22:54;19.23;;;9.50;;
48526;SDS011;34317;51.660;5.824;2023-04-06T03:25:26;18.67;;;9.82;;
48526;SDS011;34317;51.660;5.824;2023-04-06T03:27:57;18.00;;;10.15;;
48526;SDS011;34317;51.660;5.824;2023-04-06T03:30:25;20.63;;;10.15;;
48526;SDS011;34317;51.660;5.824;2023-04-06T03:32:53;19.67;;;10.60;;
48526;SDS011;34317;51.660;5.824;2023-04-06T03:35:23;17.50;;;9.88;;
48526;SDS011;34317;51.660;5.824;2023-04-06T03:37:51;24.40;;;9.75;;
48526;SDS011;34317;51.660;5.824;2023-04-06T03:40:18;19.23;;;10.23;;
48526;SDS011;34317;51.660;5.824;2023-04-06T03:42:46;21.38;;;9.82;;
48526;SDS011;34317;51.660;5.824;2023-04-06T03:45:15;20.48;;;10.35;;
48526;SDS011;34317;51.660;5.824;2023-04-06T03:47:49;19.23;;;9.88;;
48526;SDS011;34317;51.660;5.824;2023-04-06T03:50:17;19.88;;;10.13;;
48526;SDS011;34317;51.660;5.824;2023-04-06T03:52:45;17.10;;;10.15;;
48526;SDS011;34317;51.660;5.824;2023-04-06T03:55:12;18.13;;;10.30;;
48526;SDS011;34317;51.660;5.824;2023-04-06T03:57:39;19.60;;;10.27;;
48526;SDS011;34317;51.660;5.824;2023-04-06T04:00:07;21.70;;;10.35;;
48526;SDS011;34317;51.660;5.824;2023-04-06T04:02:41;20.13;;;10.40;;
48526;SDS011;34317;51.660;5.824;2023-04-06T04:05:08;20.88;;;10.38;;
48526;SDS011;34317;51.660;5.824;2023-04-06T04:07:36;24.65;;;10.68;;
48526;SDS011;34317;51.660;5.824;2023-04-06T04:10:05;17.23;;;10.43;;
48526;SDS011;34317;51.660;5.824;2023-04-06T04:12:33;18.17;;;10.75;;
48526;SDS011;34317;51.660;5.824;2023-04-06T04:15:00;18.90;;;11.00;;
48526;SDS011;34317;51.660;5.824;2023-04-06T04:17:27;19.40;;;10.27;;
48526;SDS011;34317;51.660;5.824;2023-04-06T04:19:54;19.08;;;10.73;;
48526;SDS011;34317;51.660;5.824;2023-04-06T04:22:22;22.35;;;10.93;;
48526;SDS011;34317;51.660;5.824;2023-04-06T04:24:49;17.95;;;9.75;;
48526;SDS011;34317;51.660;5.824;2023-04-06T04:27:17;20.33;;;10.68;;
48526;SDS011;34317;51.660;5.824;2023-04-06T04:29:46;19.58;;;10.48;;
48526;SDS011;34317;51.660;5.824;2023-04-06T04:32:13;18.52;;;10.35;;
48526;SDS011;34317;51.660;5.824;2023-04-06T04:34:40;20.25;;;10.52;;
48526;SDS011;34317;51.660;5.824;2023-04-06T04:37:13;20.30;;;9.95;;
48526;SDS011;34317;51.660;5.824;2023-04-06T04:39:50;18.90;;;10.48;;
48526;SDS011;34317;51.660;5.824;2023-04-06T04:42:18;21.58;;;10.55;;
48526;SDS011;34317;51.660;5.824;2023-04-06T04:44:50;18.00;;;9.55;;
48526;SDS011;34317;51.660;5.824;2023-04-06T04:47:28;19.52;;;10.23;;
48526;SDS011;34317;51.660;5.824;2023-04-06T04:49:55;19.45;;;10.57;;
48526;SDS011;34317;51.660;5.824;2023-04-06T04:52:24;23.33;;;11.23;;
48526;SDS011;34317;51.660;5.824;2023-04-06T04:57:38;20.98;;;9.48;;
48526;SDS011;34317;51.660;5.824;2023-04-06T05:00:06;22.65;;;9.68;;
48526;SDS011;34317;51.660;5.824;2023-04-06T05:02:41;21.95;;;10.57;;
48526;SDS011;34317;51.660;5.824;2023-04-06T05:05:16;24.57;;;11.00;;
48526;SDS011;34317;51.660;5.824;2023-04-06T05:07:43;21.95;;;9.48;;
48526;SDS011;34317;51.660;5.824;2023-04-06T05:10:19;23.52;;;9.60;;
48526;SDS011;34317;51.660;5.824;2023-04-06T05:12:54;18.30;;;9.50;;
48526;SDS011;34317;51.660;5.824;2023-04-06T05:15:21;20.25;;;9.80;;
48526;SDS011;34317;51.660;5.824;2023-04-06T05:17:53;23.27;;;11.13;;
48526;SDS011;34317;51.660;5.824;2023-04-06T05:20:27;21.37;;;10.07;;
48526;SDS011;34317;51.660;5.824;2023-04-06T05:22:55;20.80;;;10.30;;
48526;SDS011;34317;51.660;5.824;2023-04-06T05:25:22;18.98;;;9.98;;
48526;SDS011;34317;51.660;5.824;2023-04-06T05:27:53;20.85;;;9.98;;
48526;SDS011;34317;51.660;5.824;2023-04-06T05:30:28;25.63;;;10.18;;
48526;SDS011;34317;51.660;5.824;2023-04-06T05:32:55;20.83;;;10.27;;
48526;SDS011;34317;51.660;5.824;2023-04-06T05:35:26;23.70;;;10.80;;
48526;SDS011;34317;51.660;5.824;2023-04-06T05:37:58;19.98;;;10.25;;
48526;SDS011;34317;51.660;5.824;2023-04-06T05:40:27;21.85;;;10.50;;
48526;SDS011;34317;51.660;5.824;2023-04-06T05:42:54;23.65;;;10.63;;
48526;SDS011;34317;51.660;5.824;2023-04-06T05:45:22;22.10;;;10.68;;
48526;SDS011;34317;51.660;5.824;2023-04-06T05:47:53;21.15;;;11.15;;
48526;SDS011;34317;51.660;5.824;2023-04-06T05:50:27;23.20;;;11.52;;
48526;SDS011;34317;51.660;5.824;2023-04-06T05:52:56;24.98;;;10.55;;
48526;SDS011;34317;51.660;5.824;2023-04-06T05:55:29;21.95;;;11.23;;
48526;SDS011;34317;51.660;5.824;2023-04-06T05:58:09;27.77;;;11.55;;
48526;SDS011;34317;51.660;5.824;2023-04-06T06:00:38;25.30;;;12.15;;
48526;SDS011;34317;51.660;5.824;2023-04-06T06:03:07;25.98;;;12.05;;
48526;SDS011;34317;51.660;5.824;2023-04-06T06:05:36;24.23;;;11.00;;
48526;SDS011;34317;51.660;5.824;2023-04-06T06:08:08;24.17;;;10.45;;
48526;SDS011;34317;51.660;5.824;2023-04-06T06:10:38;20.73;;;8.77;;
48526;SDS011;34317;51.660;5.824;2023-04-06T06:13:08;18.27;;;9.00;;
48526;SDS011;34317;51.660;5.824;2023-04-06T06:15:37;21.05;;;9.30;;
48526;SDS011;34317;51.660;5.824;2023-04-06T06:18:04;17.83;;;8.60;;
48526;SDS011;34317;51.660;5.824;2023-04-06T06:20:32;20.88;;;8.98;;
48526;SDS011;34317;51.660;5.824;2023-04-06T06:23:02;21.67;;;8.52;;
48526;SDS011;34317;51.660;5.824;2023-04-06T06:25:30;20.45;;;8.77;;
48526;SDS011;34317;51.660;5.824;2023-04-06T06:27:59;18.50;;;8.60;;
48526;SDS011;34317;51.660;5.824;2023-04-06T06:30:29;18.98;;;8.57;;
48526;SDS011;34317;51.660;5.824;2023-04-06T06:32:56;18.58;;;9.02;;
48526;SDS011;34317;51.660;5.824;2023-04-06T06:35:25;17.80;;;8.45;;
48526;SDS011;34317;51.660;5.824;2023-04-06T06:37:52;17.45;;;8.75;;
48526;SDS011;34317;51.660;5.824;2023-04-06T06:40:23;15.82;;;8.05;;
48526;SDS011;34317;51.660;5.824;2023-04-06T06:42:52;19.75;;;8.23;;
48526;SDS011;34317;51.660;5.824;2023-04-06T06:45:25;16.48;;;7.88;;
48526;SDS011;34317;51.660;5.824;2023-04-06T06:47:53;15.85;;;8.02;;
48526;SDS011;34317;51.660;5.824;2023-04-06T06:50:21;17.42;;;8.27;;
48526;SDS011;34317;51.660;5.824;2023-04-06T06:52:49;17.58;;;8.02;;
48526;SDS011;34317;51.660;5.824;2023-04-06T06:55:16;15.50;;;8.23;;
48526;SDS011;34317;51.660;5.824;2023-04-06T06:57:46;16.65;;;7.88;;
48526;SDS011;34317;51.660;5.824;2023-04-06T07:00:14;14.63;;;7.68;;
48526;SDS011;34317;51.660;5.824;2023-04-06T07:02:43;18.00;;;8.25;;
48526;SDS011;34317;51.660;5.824;2023-04-06T07:05:10;17.85;;;7.78;;
48526;SDS011;34317;51.660;5.824;2023-04-06T07:07:54;17.60;;;8.15;;
48526;SDS011;34317;51.660;5.824;2023-04-06T07:10:21;16.85;;;8.38;;
48526;SDS011;34317;51.660;5.824;2023-04-06T07:12:50;17.00;;;8.45;;
48526;SDS011;34317;51.660;5.824;2023-04-06T07:15:17;18.77;;;8.35;;
48526;SDS011;34317;51.660;5.824;2023-04-06T07:17:45;19.38;;;8.50;;
48526;SDS011;34317;51.660;5.824;2023-04-06T07:20:13;16.75;;;8.55;;
48526;SDS011;34317;51.660;5.824;2023-04-06T07:22:42;14.35;;;7.45;;
48526;SDS011;34317;51.660;5.824;2023-04-06T07:25:11;14.57;;;7.88;;
48526;SDS011;34317;51.660;5.824;2023-04-06T07:27:40;17.67;;;8.27;;
48526;SDS011;34317;51.660;5.824;2023-04-06T07:30:08;17.77;;;7.90;;
48526;SDS011;34317;51.660;5.824;2023-04-06T07:32:36;17.60;;;8.63;;
48526;SDS011;34317;51.660;5.824;2023-04-06T07:35:04;18.00;;;7.95;;
48526;SDS011;34317;51.660;5.824;2023-04-06T07:37:31;16.88;;;7.97;;
48526;SDS011;34317;51.660;5.824;2023-04-06T07:39:59;20.63;;;11.07;;
48526;SDS011;34317;51.660;5.824;2023-04-06T07:42:27;19.73;;;11.02;;
48526;SDS011;34317;51.660;5.824;2023-04-06T07:44:54;19.40;;;11.40;;
48526;SDS011;34317;51.660;5.824;2023-04-06T07:47:23;20.85;;;11.52;;
48526;SDS011;34317;51.660;5.824;2023-04-06T07:49:50;20.83;;;11.30;;
48526;SDS011;34317;51.660;5.824;2023-04-06T07:52:17;23.50;;;11.75;;
48526;SDS011;34317;51.660;5.824;2023-04-06T07:54:44;20.52;;;11.40;;
48526;SDS011;34317;51.660;5.824;2023-04-06T07:57:12;19.00;;;10.98;;
48526;SDS011;34317;51.660;5.824;2023-04-06T07:59:40;18.92;;;11.13;;
48526;SDS011;34317;51.660;5.824;2023-04-06T08:02:07;21.08;;;11.07;;
48526;SDS011;34317;51.660;5.824;2023-04-06T08:04:35;23.35;;;11.20;;
48526;SDS011;34317;51.660;5.824;2023-04-06T08:07:03;20.20;;;11.70;;
48526;SDS011;34317;51.660;5.824;2023-04-06T08:09:30;21.85;;;11.73;;
48526;SDS011;34317;51.660;5.824;2023-04-06T08:11:57;24.80;;;11.52;;
48526;SDS011;34317;51.660;5.824;2023-04-06T08:14:25;21.95;;;11.35;;
48526;SDS011;34317;51.660;5.824;2023-04-06T08:16:52;20.30;;;11.00;;
48526;SDS011;34317;51.660;5.824;2023-04-06T08:19:19;20.13;;;11.10;;
48526;SDS011;34317;51.660;5.824;2023-04-06T08:21:47;20.85;;;11.93;;
48526;SDS011;34317;51.660;5.824;2023-04-06T08:24:14;24.05;;;12.05;;
48526;SDS011;34317;51.660;5.824;2023-04-06T08:26:42;17.13;;;10.80;;
48526;SDS011;34317;51.660;5.824;2023-04-06T08:29:09;20.23;;;11.40;;
48526;SDS011;34317;51.660;5.824;2023-04-06T08:31:36;18.02;;;11.63;;
48526;SDS011;34317;51.660;5.824;2023-04-06T08:34:03;19.35;;;11.70;;
48526;SDS011;34317;51.660;5.824;2023-04-06T08:36:33;19.45;;;11.02;;
48526;SDS011;34317;51.660;5.824;2023-04-06T08:39:00;22.20;;;11.27;;
48526;SDS011;34317;51.660;5.824;2023-04-06T08:41:28;20.17;;;11.25;;
48526;SDS011;34317;51.660;5.824;2023-04-06T08:46:22;24.30;;;12.70;;
48526;SDS011;34317;51.660;5.824;2023-04-06T08:48:56;19.27;;;11.52;;
48526;SDS011;34317;51.660;5.824;2023-04-06T08:51:24;17.95;;;11.85;;
48526;SDS011;34317;51.660;5.824;2023-04-06T08:53:53;23.98;;;11.75;;
48526;SDS011;34317;51.660;5.824;2023-04-06T08:56:25;19.13;;;10.70;;
48526;SDS011;34317;51.660;5.824;2023-04-06T08:58:54;19.95;;;11.52;;
48526;SDS011;34317;51.660;5.824;2023-04-06T09:01:23;16.13;;;11.10;;
48526;SDS011;34317;51.660;5.824;2023-04-06T09:03:59;18.45;;;11.80;;
48526;SDS011;34317;51.660;5.824;2023-04-06T09:06:27;23.55;;;12.60;;
48526;SDS011;34317;51.660;5.824;2023-04-06T09:08:55;20.42;;;11.88;;
48526;SDS011;34317;51.660;5.824;2023-04-06T09:11:22;22.77;;;12.23;;
48526;SDS011;34317;51.660;5.824;2023-04-06T09:13:53;19.60;;;11.77;;
48526;SDS011;34317;51.660;5.824;2023-04-06T09:16:21;20.60;;;11.90;;
48526;SDS011;34317;51.660;5.824;2023-04-06T09:18:49;18.65;;;11.18;;
48526;SDS011;34317;51.660;5.824;2023-04-06T09:21:17;20.17;;;12.82;;
48526;SDS011;34317;51.660;5.824;2023-04-06T09:23:57;20.60;;;12.30;;
48526;SDS011;34317;51.660;5.824;2023-04-06T09:26:26;19.95;;;12.15;;
48526;SDS011;34317;51.660;5.824;2023-04-06T09:28:54;19.83;;;12.50;;
48526;SDS011;34317;51.660;5.824;2023-04-06T09:31:23;24.65;;;12.18;;
48526;SDS011;34317;51.660;5.824;2023-04-06T09:33:53;19.30;;;12.38;;
48526;SDS011;34317;51.660;5.824;2023-04-06T09:36:33;19.67;;;11.98;;
48526;SDS011;34317;51.660;5.824;2023-04-06T09:39:02;24.17;;;12.45;;
48526;SDS011;34317;51.660;5.824;2023-04-06T09:41:34;18.58;;;11.82;;
48526;SDS011;34317;51.660;5.824;2023-04-06T09:44:06;23.38;;;11.63;;
48526;SDS011;34317;51.660;5.824;2023-04-06T09:46:35;19.08;;;12.00;;
48526;SDS011;34317;51.660;5.824;2023-04-06T09:49:24;20.33;;;11.90;;
48526;SDS011;34317;51.660;5.824;2023-04-06T09:51:58;22.63;;;12.07;;
48526;SDS011;34317;51.660;5.824;2023-04-06T09:54:28;23.40;;;11.82;;
48526;SDS011;34317;51.660;5.824;2023-04-06T09:57:07;18.48;;;12.18;;
48526;SDS011;34317;51.660;5.824;2023-04-06T09:59:53;19.60;;;12.38;;
48526;SDS011;34317;51.660;5.824;2023-04-06T10:08:06;19.98;;;11.55;;
48526;SDS011;34317;51.660;5.824;2023-04-06T10:10:36;23.17;;;12.68;;
48526;SDS011;34317;51.660;5.824;2023-04-06T10:13:04;22.48;;;11.85;;
48526;SDS011;34317;51.660;5.824;2023-04-06T10:15:31;21.23;;;12.05;;
48526;SDS011;34317;51.660;5.824;2023-04-06T10:18:00;20.63;;;12.30;;
48526;SDS011;34317;51.660;5.824;2023-04-06T10:20:42;22.88;;;12.18;;
48526;SDS011;34317;51.660;5.824;2023-04-06T10:23:19;21.42;;;12.10;;
48526;SDS011;34317;51.660;5.824;2023-04-06T10:25:57;20.55;;;11.98;;
48526;SDS011;34317;51.660;5.824;2023-04-06T10:28:30;20.50;;;11.93;;
48526;SDS011;34317;51.660;5.824;2023-04-06T10:31:05;22.45;;;12.02;;
48526;SDS011;34317;51.660;5.824;2023-04-06T10:33:33;19.70;;;12.13;;
48526;SDS011;34317;51.660;5.824;2023-04-06T10:36:10;19.02;;;11.55;;
48526;SDS011;34317;51.660;5.824;2023-04-06T10:38:40;22.25;;;12.15;;
48526;SDS011;34317;51.660;5.824;2023-04-06T10:41:09;20.45;;;12.18;;
48526;SDS011;34317;51.660;5.824;2023-04-06T10:43:39;21.58;;;11.98;;
48526;SDS011;34317;51.660;5.824;2023-04-06T10:46:08;20.33;;;12.10;;
48526;SDS011;34317;51.660;5.824;2023-04-06T10:48:42;21.88;;;12.38;;
48526;SDS011;34317;51.660;5.824;2023-04-06T10:51:14;20.60;;;12.52;;
48526;SDS011;34317;51.660;5.824;2023-04-06T10:53:46;20.80;;;12.02;;
48526;SDS011;34317;51.660;5.824;2023-04-06T10:56:16;21.15;;;12.30;;
48526;SDS011;34317;51.660;5.824;2023-04-06T10:58:48;18.75;;;12.15;;
48526;SDS011;34317;51.660;5.824;2023-04-06T11:01:17;20.02;;;11.63;;
48526;SDS011;34317;51.660;5.824;2023-04-06T11:03:47;15.57;;;10.90;;
48526;SDS011;34317;51.660;5.824;2023-04-06T11:06:24;18.83;;;11.35;;
48526;SDS011;34317;51.660;5.824;2023-04-06T11:08:53;15.63;;;9.52;;
48526;SDS011;34317;51.660;5.824;2023-04-06T11:11:22;16.30;;;9.63;;
48526;SDS011;34317;51.660;5.824;2023-04-06T11:13:53;13.93;;;9.20;;
48526;SDS011;34317;51.660;5.824;2023-04-06T11:16:22;12.43;;;8.05;;
48526;SDS011;34317;51.660;5.824;2023-04-06T11:18:55;14.32;;;8.88;;
48526;SDS011;34317;51.660;5.824;2023-04-06T11:21:36;14.30;;;8.73;;
48526;SDS011;34317;51.660;5.824;2023-04-06T11:24:11;12.15;;;8.52;;
48526;SDS011;34317;51.660;5.824;2023-04-06T11:27:04;12.75;;;7.70;;
48526;SDS011;34317;51.660;5.824;2023-04-06T11:29:31;12.68;;;7.65;;
48526;SDS011;34317;51.660;5.824;2023-04-06T11:32:02;11.88;;;6.82;;
48526;SDS011;34317;51.660;5.824;2023-04-06T11:34:32;10.77;;;5.60;;
48526;SDS011;34317;51.660;5.824;2023-04-06T11:37:10;8.27;;;5.55;;
48526;SDS011;34317;51.660;5.824;2023-04-06T11:39:39;11.07;;;5.45;;
48526;SDS011;34317;51.660;5.824;2023-04-06T11:42:08;7.57;;;4.68;;
48526;SDS011;34317;51.660;5.824;2023-04-06T11:44:36;6.70;;;4.70;;
48526;SDS011;34317;51.660;5.824;2023-04-06T11:47:09;7.00;;;4.53;;
48526;SDS011;34317;51.660;5.824;2023-04-06T11:49:38;10.88;;;4.70;;
48526;SDS011;34317;51.660;5.824;2023-04-06T11:55:12;7.57;;;5.03;;
48526;SDS011;34317;51.660;5.824;2023-04-06T11:57:41;7.72;;;4.80;;
48526;SDS011;34317;51.660;5.824;2023-04-06T12:00:09;9.15;;;5.18;;
48526;SDS011;34317;51.660;5.824;2023-04-06T12:02:38;8.30;;;5.10;;
48526;SDS011;34317;51.660;5.824;2023-04-06T12:05:06;8.57;;;5.18;;
48526;SDS011;34317;51.660;5.824;2023-04-06T12:07:35;8.70;;;5.75;;
48526;SDS011;34317;51.660;5.824;2023-04-06T12:10:03;7.43;;;4.97;;
48526;SDS011;34317;51.660;5.824;2023-04-06T12:12:31;8.65;;;4.85;;
48526;SDS011;34317;51.660;5.824;2023-04-06T12:14:59;7.50;;;4.70;;
48526;SDS011;34317;51.660;5.824;2023-04-06T12:17:26;8.95;;;4.88;;
48526;SDS011;34317;51.660;5.824;2023-04-06T12:19:54;7.53;;;4.50;;
48526;SDS011;34317;51.660;5.824;2023-04-06T12:22:27;7.47;;;4.78;;
48526;SDS011;34317;51.660;5.824;2023-04-06T12:24:55;8.00;;;4.80;;
48526;SDS011;34317;51.660;5.824;2023-04-06T12:27:22;8.95;;;4.70;;
48526;SDS011;34317;51.660;5.824;2023-04-06T12:29:49;9.30;;;4.93;;
48526;SDS011;34317;51.660;5.824;2023-04-06T12:32:17;9.50;;;5.18;;
48526;SDS011;34317;51.660;5.824;2023-04-06T12:34:44;6.78;;;4.38;;
48526;SDS011;34317;51.660;5.824;2023-04-06T12:37:12;7.57;;;4.43;;
48526;SDS011;34317;51.660;5.824;2023-04-06T12:39:39;6.88;;;4.53;;
48526;SDS011;34317;51.660;5.824;2023-04-06T12:42:06;7.90;;;4.88;;
48526;SDS011;34317;51.660;5.824;2023-04-06T12:44:34;9.57;;;5.43;;
48526;SDS011;34317;51.660;5.824;2023-04-06T12:47:01;8.43;;;4.88;;
48526;SDS011;34317;51.660;5.824;2023-04-06T12:49:29;9.10;;;5.40;;
48526;SDS011;34317;51.660;5.824;2023-04-06T12:51:57;8.25;;;5.18;;
48526;SDS011;34317;51.660;5.824;2023-04-06T12:54:25;7.85;;;5.53;;
48526;SDS011;34317;51.660;5.824;2023-04-06T12:56:53;9.05;;;5.53;;
48526;SDS011;34317;51.660;5.824;2023-04-06T12:59:20;9.18;;;5.57;;
48526;SDS011;34317;51.660;5.824;2023-04-06T13:01:48;10.20;;;6.07;;
48526;SDS011;34317;51.660;5.824;2023-04-06T13:04:15;11.20;;;6.13;;
48526;SDS011;34317;51.660;5.824;2023-04-06T13:06:42;11.88;;;6.28;;
48526;SDS011;34317;51.660;5.824;2023-04-06T13:09:10;9.60;;;5.80;;
48526;SDS011;34317;51.660;5.824;2023-04-06T13:11:37;10.32;;;6.45;;
48526;SDS011;34317;51.660;5.824;2023-04-06T13:14:04;10.23;;;6.03;;
48526;SDS011;34317;51.660;5.824;2023-04-06T13:16:31;11.15;;;6.75;;
48526;SDS011;34317;51.660;5.824;2023-04-06T13:18:59;12.32;;;6.97;;
48526;SDS011;34317;51.660;5.824;2023-04-06T13:21:26;11.25;;;6.53;;
48526;SDS011;34317;51.660;5.824;2023-04-06T13:23:53;11.35;;;6.70;;
48526;SDS011;34317;51.660;5.824;2023-04-06T13:26:21;10.23;;;6.57;;
48526;SDS011;34317;51.660;5.824;2023-04-06T13:28:48;13.68;;;6.32;;
48526;SDS011;34317;51.660;5.824;2023-04-06T13:31:16;11.02;;;6.70;;
48526;SDS011;34317;51.660;5.824;2023-04-06T13:33:43;11.18;;;6.32;;
48526;SDS011;34317;51.660;5.824;2023-04-06T13:36:11;12.23;;;6.88;;
48526;SDS011;34317;51.660;5.824;2023-04-06T13:38:38;11.23;;;6.68;;
48526;SDS011;34317;51.660;5.824;2023-04-06T13:41:05;11.35;;;7.03;;
48526;SDS011;34317;51.660;5.824;2023-04-06T13:43:33;11.27;;;7.18;;
48526;SDS011;34317;51.660;5.824;2023-04-06T13:46:00;12.05;;;7.25;;
48526;SDS011;34317;51.660;5.824;2023-04-06T13:48:28;12.65;;;7.38;;
48526;SDS011;34317;51.660;5.824;2023-04-06T13:50:57;11.02;;;6.90;;
48526;SDS011;34317;51.660;5.824;2023-04-06T13:53:24;12.88;;;7.30;;
48526;SDS011;34317;51.660;5.824;2023-04-06T13:55:52;11.38;;;7.30;;
48526;SDS011;34317;51.660;5.824;2023-04-06T13:58:20;12.85;;;6.80;;
48526;SDS011;34317;51.660;5.824;2023-04-06T14:00:47;10.35;;;6.68;;
48526;SDS011;34317;51.660;5.824;2023-04-06T14:03:15;11.27;;;6.63;;
48526;SDS011;34317;51.660;5.824;2023-04-06T14:05:42;10.75;;;6.78;;
48526;SDS011;34317;51.660;5.824;2023-04-06T14:08:09;11.05;;;7.28;;
48526;SDS011;34317;51.660;5.824;2023-04-06T14:10:37;10.85;;;6.60;;
48526;SDS011;34317;51.660;5.824;2023-04-06T14:13:07;10.18;;;6.45;;
48526;SDS011;34317;51.660;5.824;2023-04-06T14:15:34;10.07;;;7.00;;
48526;SDS011;34317;51.660;5.824;2023-04-06T14:18:02;11.20;;;6.72;;
48526;SDS011;34317;51.660;5.824;2023-04-06T14:20:32;11.18;;;6.38;;
48526;SDS011;34317;51.660;5.824;2023-04-06T14:23:00;12.55;;;6.60;;
48526;SDS011;34317;51.660;5.824;2023-04-06T14:25:28;8.90;;;5.88;;
48526;SDS011;34317;51.660;5.824;2023-04-06T14:27:57;11.38;;;6.70;;
48526;SDS011;34317;51.660;5.824;2023-04-06T14:30:25;11.10;;;6.70;;
48526;SDS011;34317;51.660;5.824;2023-04-06T14:32:52;9.77;;;6.50;;
48526;SDS011;34317;51.660;5.824;2023-04-06T14:35:19;8.77;;;5.93;;
48526;SDS011;34317;51.660;5.824;2023-04-06T14:37:47;11.52;;;6.60;;
48526;SDS011;34317;51.660;5.824;2023-04-06T14:40:14;11.98;;;6.47;;
48526;SDS011;34317;51.660;5.824;2023-04-06T14:42:41;11.43;;;6.45;;
48526;SDS011;34317;51.660;5.824;2023-04-06T14:45:09;11.93;;;6.57;;
48526;SDS011;34317;51.660;5.824;2023-04-06T14:47:36;11.18;;;6.35;;
48526;SDS011;34317;51.660;5.824;2023-04-06T14:50:03;9.52;;;6.10;;
48526;SDS011;34317;51.660;5.824;2023-04-06T14:52:31;11.35;;;6.35;;
48526;SDS011;34317;51.660;5.824;2023-04-06T14:54:58;11.77;;;6.75;;
48526;SDS011;34317;51.660;5.824;2023-04-06T14:57:26;12.00;;;7.10;;
48526;SDS011;34317;51.660;5.824;2023-04-06T14:59:53;10.23;;;6.55;;